Time;durP1;ratioP1;P1;durP2;ratioP2;P2;SDS_P1;SDS_P2;PMS_P1;PMS_P2;Temp;Humidity;BMP_temperature;BMP_pressure;BME280_temperature;BME280_humidity;BME280_pressure;Samples;Min_cycle;Max_cycle;Signal;HPM_P1;HPM_P2
2022/08/14 00:01:21;;;;;;;;;;;23.50;77.50;;;;;;5094447;28;19959;-63
2022/08/14 00:03:46;;;;;;;;;;;23.50;77.60;;;;;;5094475;28;20351;-63
2022/08/14 00:06:12;;;;;;;;;;;23.50;77.60;;;;;;5094089;28;20010;-63
2022/08/14 00:08:37;;;;;;;;;;;23.50;77.60;;;;;;5094460;28;19909;-63
2022/08/14 00:11:03;;;;;;;;;;;23.50;77.60;;;;;;5094138;28;19912;-63
2022/08/14 00:13:28;;;;;;;;;;;23.50;77.50;;;;;;5094179;28;20255;-63
2022/08/14 00:15:55;;;;;;;;;;;23.50;77.60;;;;;;5094373;28;19947;-63
2022/08/14 00:18:22;;;;;;;;;;;23.50;77.60;;;;;;5093990;28;19963;-63
2022/08/14 00:20:48;;;;;;;;;;;23.50;77.60;;;;;;5093991;28;20427;-63
2022/08/14 00:23:15;;;;;;;;;;;23.50;77.60;;;;;;5076188;28;19909;-63
2022/08/14 00:25:41;;;;;;;;;;;23.50;77.60;;;;;;5094215;28;19914;-63
2022/08/14 00:28:07;;;;;;;;;;;23.50;77.70;;;;;;5094214;28;19952;-63
2022/08/14 00:30:33;;;;;;;;;;;23.50;77.70;;;;;;5094212;28;19909;-63
2022/08/14 00:32:58;;;;;;;;;;;23.50;77.70;;;;;;5096365;28;19916;-63
2022/08/14 00:35:24;;;;;;;;;;;23.50;77.70;;;;;;5080232;28;20283;-63
2022/08/14 00:37:50;;;;;;;;;;;23.50;77.70;;;;;;5098244;28;20369;-63
2022/08/14 00:40:17;;;;;;;;;;;23.50;77.70;;;;;;5098329;28;19908;-63
2022/08/14 00:42:42;;;;;;;;;;;23.50;77.60;;;;;;5097867;28;19908;-63
2022/08/14 00:45:10;;;;;;;;;;;23.50;77.70;;;;;;5098490;28;20351;-63
2022/08/14 00:47:35;;;;;;;;;;;23.50;77.70;;;;;;5098019;28;20343;-63
2022/08/14 00:50:03;;;;;;;;;;;23.40;77.60;;;;;;5098046;28;19951;-63
2022/08/14 00:52:30;;;;;;;;;;;23.50;77.70;;;;;;5079784;28;19916;-63
2022/08/14 00:54:56;;;;;;;;;;;23.40;77.60;;;;;;5097724;28;20310;-63
2022/08/14 00:57:26;;;;;;;;;;;23.40;77.70;;;;;;5097529;28;19908;-63
2022/08/14 00:59:51;;;;;;;;;;;23.40;77.70;;;;;;5079355;28;20369;-63
2022/08/14 01:02:18;;;;;;;;;;;23.40;77.70;;;;;;5097768;28;19920;-63
2022/08/14 01:04:47;;;;;;;;;;;23.40;77.70;;;;;;5098178;28;19908;-63
2022/08/14 01:07:15;;;;;;;;;;;23.40;77.70;;;;;;5097769;28;19908;-63
2022/08/14 01:09:40;;;;;;;;;;;23.40;77.70;;;;;;5097387;28;20382;-63
2022/08/14 01:12:06;;;;;;;;;;;23.40;77.70;;;;;;5097772;28;19919;-63
2022/08/14 01:14:31;;;;;;;;;;;23.40;77.70;;;;;;5097648;28;19912;-63
2022/08/14 01:16:58;;;;;;;;;;;23.40;77.70;;;;;;5097616;28;19908;-63
2022/08/14 01:22:09;;;;;;;;;;;23.40;77.80;;;;;;5097519;28;20266;-63
2022/08/14 01:24:35;;;;;;;;;;;23.40;77.80;;;;;;5097441;28;20415;-63
2022/08/14 01:27:03;;;;;;;;;;;23.40;77.70;;;;;;5097384;28;20367;-63
2022/08/14 01:29:29;;;;;;;;;;;23.40;77.80;;;;;;5097189;28;20358;-63
2022/08/14 01:31:55;;;;;;;;;;;23.40;77.80;;;;;;5079100;28;19912;-63
2022/08/14 01:34:22;;;;;;;;;;;23.40;77.70;;;;;;5097130;28;19912;-63
2022/08/14 01:36:48;;;;;;;;;;;23.40;77.70;;;;;;5097146;28;19908;-63
2022/08/14 01:39:15;;;;;;;;;;;23.40;77.70;;;;;;5078975;28;19909;-63
2022/08/14 01:41:43;;;;;;;;;;;23.40;77.80;;;;;;5096770;28;19927;-63
2022/08/14 01:44:11;;;;;;;;;;;23.40;77.80;;;;;;5095566;28;19948;-63
2022/08/14 01:46:39;;;;;;;;;;;23.40;77.70;;;;;;5097047;28;19916;-63
2022/08/14 01:49:06;;;;;;;;;;;23.40;77.80;;;;;;5096876;28;19908;-63
2022/08/14 01:51:33;;;;;;;;;;;23.30;77.80;;;;;;5096888;28;19916;-63
2022/08/14 01:54:04;;;;;;;;;;;23.30;77.70;;;;;;5096884;28;20070;-63
2022/08/14 01:56:37;;;;;;;;;;;23.40;77.80;;;;;;5096788;28;20347;-63
2022/08/14 01:59:04;;;;;;;;;;;23.40;77.80;;;;;;5096363;28;20420;-63
2022/08/14 02:01:30;;;;;;;;;;;23.40;77.80;;;;;;5096940;28;19919;-63
2022/08/14 02:03:56;;;;;;;;;;;23.40;77.80;;;;;;5096739;28;19920;-62
2022/08/14 02:06:21;;;;;;;;;;;23.40;77.80;;;;;;5096665;28;20345;-63
2022/08/14 02:08:47;;;;;;;;;;;23.40;77.70;;;;;;5096296;28;19947;-63
2022/08/14 02:11:16;;;;;;;;;;;23.40;77.70;;;;;;5096076;28;19909;-63
2022/08/14 02:13:42;;;;;;;;;;;23.40;77.80;;;;;;5096517;28;19950;-63
2022/08/14 02:16:09;;;;;;;;;;;23.40;77.80;;;;;;5096445;28;19908;-63
2022/08/14 02:18:34;;;;;;;;;;;23.40;77.80;;;;;;5096385;28;19912;-63
2022/08/14 02:21:01;;;;;;;;;;;23.40;77.70;;;;;;5078192;28;19908;-63
2022/08/14 02:23:26;;;;;;;;;;;23.30;77.80;;;;;;5096278;28;19994;-63
2022/08/14 02:25:52;;;;;;;;;;;23.30;77.80;;;;;;5096624;28;19948;-61
2022/08/14 02:28:17;;;;;;;;;;;23.30;77.70;;;;;;5095969;28;19908;-63
2022/08/14 02:30:43;;;;;;;;;;;23.30;77.80;;;;;;5096106;28;19908;-63
2022/08/14 02:33:08;;;;;;;;;;;23.30;77.80;;;;;;5096041;28;19916;-63
2022/08/14 02:35:34;;;;;;;;;;;23.30;77.80;;;;;;5095760;28;19946;-63
2022/08/14 02:37:59;;;;;;;;;;;23.30;77.80;;;;;;5096345;28;19909;-62
2022/08/14 02:40:26;;;;;;;;;;;23.30;77.80;;;;;;5095689;28;19908;-63
2022/08/14 02:42:52;;;;;;;;;;;23.30;77.80;;;;;;5095860;28;20042;-63
2022/08/14 02:45:17;;;;;;;;;;;23.30;77.80;;;;;;5096117;28;19940;-63
2022/08/14 02:47:43;;;;;;;;;;;23.30;77.80;;;;;;5095831;28;19915;-63
2022/08/14 02:50:08;;;;;;;;;;;23.30;77.80;;;;;;5095673;28;19912;-63
2022/08/14 02:52:34;;;;;;;;;;;23.30;77.80;;;;;;5095720;28;19912;-63
2022/08/14 02:55:00;;;;;;;;;;;23.30;77.80;;;;;;5095472;28;19935;-63
2022/08/14 02:57:26;;;;;;;;;;;23.30;77.80;;;;;;5095208;28;19916;-63
2022/08/14 02:59:52;;;;;;;;;;;23.30;77.80;;;;;;5096020;28;19912;-63
2022/08/14 03:02:17;;;;;;;;;;;23.30;77.90;;;;;;5095523;28;19920;-63
2022/08/14 03:04:43;;;;;;;;;;;23.30;77.80;;;;;;5095116;28;20300;-63
2022/08/14 03:07:10;;;;;;;;;;;23.30;77.80;;;;;;5076752;28;20304;-63
2022/08/14 03:09:36;;;;;;;;;;;23.30;77.80;;;;;;5077184;28;19944;-63
2022/08/14 03:12:02;;;;;;;;;;;23.30;77.80;;;;;;5095188;28;20319;-63
2022/08/14 03:14:27;;;;;;;;;;;23.30;77.80;;;;;;5095104;28;19999;-63
2022/08/14 03:16:53;;;;;;;;;;;23.30;77.90;;;;;;5094984;28;20266;-64
2022/08/14 03:19:18;;;;;;;;;;;23.30;77.90;;;;;;5095141;28;19935;-63
2022/08/14 03:21:44;;;;;;;;;;;23.30;77.80;;;;;;5094826;28;19912;-63
2022/08/14 03:24:12;;;;;;;;;;;23.30;77.90;;;;;;5095427;28;19911;-63
2022/08/14 03:26:42;;;;;;;;;;;23.30;77.90;;;;;;5094970;28;19909;-63
2022/08/14 03:29:08;;;;;;;;;;;23.30;77.90;;;;;;5094970;28;20002;-63
2022/08/14 03:31:35;;;;;;;;;;;23.30;77.90;;;;;;5094603;28;19916;-63
2022/08/14 03:34:00;;;;;;;;;;;23.30;77.90;;;;;;5095247;28;19912;-62
2022/08/14 03:36:26;;;;;;;;;;;23.30;77.90;;;;;;5094820;28;19908;-63
2022/08/14 03:38:54;;;;;;;;;;;23.30;77.90;;;;;;5094975;28;19908;-61
2022/08/14 03:41:21;;;;;;;;;;;23.20;77.90;;;;;;5094935;28;19919;-63
2022/08/14 03:43:49;;;;;;;;;;;23.30;77.90;;;;;;5094792;28;20355;-63
2022/08/14 03:46:15;;;;;;;;;;;23.30;77.90;;;;;;5094542;28;19908;-63
2022/08/14 03:48:40;;;;;;;;;;;23.20;77.90;;;;;;5076635;28;19930;-63
2022/08/14 03:51:07;;;;;;;;;;;23.30;77.90;;;;;;5094726;28;19915;-63
2022/08/14 03:53:36;;;;;;;;;;;23.30;77.90;;;;;;5094470;28;19961;-63
2022/08/14 03:56:06;;;;;;;;;;;23.30;77.90;;;;;;5094607;28;20007;-63
2022/08/14 03:58:32;;;;;;;;;;;23.20;77.80;;;;;;5094600;28;19908;-63
2022/08/14 04:01:01;;;;;;;;;;;23.20;77.90;;;;;;5094532;28;19908;-63
2022/08/14 04:03:26;;;;;;;;;;;23.20;77.90;;;;;;5094312;28;19966;-63
2022/08/14 04:05:52;;;;;;;;;;;23.30;77.90;;;;;;5094398;28;19908;-63
2022/08/14 04:08:19;;;;;;;;;;;23.30;77.90;;;;;;5093741;28;19951;-62
2022/08/14 04:10:45;;;;;;;;;;;23.30;78.00;;;;;;5094332;28;19946;-63
2022/08/14 04:13:11;;;;;;;;;;;23.20;78.50;;;;;;5094184;28;19912;-63
2022/08/14 04:15:36;;;;;;;;;;;23.20;77.90;;;;;;5094201;28;19919;-63
2022/08/14 04:18:05;;;;;;;;;;;23.20;77.90;;;;;;5093984;28;20370;-63
2022/08/14 04:20:30;;;;;;;;;;;23.20;77.90;;;;;;5093983;28;19915;-63
2022/08/14 04:22:56;;;;;;;;;;;23.20;77.90;;;;;;5093870;28;19908;-63
2022/08/14 04:25:21;;;;;;;;;;;23.20;77.90;;;;;;5094014;28;19975;-63
2022/08/14 04:27:47;;;;;;;;;;;23.20;77.90;;;;;;5094070;28;20342;-63
2022/08/14 04:30:12;;;;;;;;;;;23.20;77.90;;;;;;5075962;28;19908;-63
2022/08/14 04:32:38;;;;;;;;;;;23.20;77.90;;;;;;5094098;28;19951;-63
2022/08/14 04:35:03;;;;;;;;;;;23.20;77.90;;;;;;5094047;28;20321;-63
2022/08/14 04:45:41;;;;;;;;;;;23.30;77.80;;;;;;5093711;28;19930;-63
2022/08/14 04:48:14;;;;;;;;;;;23.20;77.80;;;;;;5075823;28;20354;-63
2022/08/14 04:50:41;;;;;;;;;;;23.30;77.80;;;;;;5093689;28;19913;-63
2022/08/14 04:53:07;;;;;;;;;;;23.30;77.80;;;;;;5093807;28;19919;-63
2022/08/14 04:55:32;;;;;;;;;;;23.30;77.80;;;;;;5093648;28;19912;-63
2022/08/14 04:57:58;;;;;;;;;;;23.30;77.80;;;;;;5075847;28;20259;-63
2022/08/14 05:00:24;;;;;;;;;;;23.30;77.80;;;;;;5075660;28;19908;-63
2022/08/14 05:02:49;;;;;;;;;;;23.30;77.80;;;;;;5075340;28;19927;-63
2022/08/14 05:05:15;;;;;;;;;;;23.30;77.70;;;;;;5093524;28;19908;-63
2022/08/14 05:07:41;;;;;;;;;;;23.30;77.80;;;;;;5075535;28;19960;-63
2022/08/14 05:10:07;;;;;;;;;;;23.30;77.70;;;;;;5093755;28;20300;-63
2022/08/14 05:12:32;;;;;;;;;;;23.30;77.70;;;;;;5093427;28;19913;-63
2022/08/14 05:14:58;;;;;;;;;;;23.30;77.80;;;;;;5093393;28;20259;-63
2022/08/14 05:17:25;;;;;;;;;;;23.30;77.70;;;;;;5093559;28;19979;-63
2022/08/14 05:19:51;;;;;;;;;;;23.40;77.80;;;;;;5097082;28;19909;-63
2022/08/14 05:22:17;;;;;;;;;;;23.30;77.70;;;;;;5097703;28;20003;-63
2022/08/14 05:24:44;;;;;;;;;;;23.30;77.70;;;;;;5097711;28;19908;-63
2022/08/14 05:27:09;;;;;;;;;;;23.30;77.70;;;;;;5097619;28;19989;-63
2022/08/14 05:29:34;;;;;;;;;;;23.30;77.70;;;;;;5097304;28;19908;-63
2022/08/14 05:32:06;;;;;;;;;;;23.30;77.70;;;;;;5096779;28;19948;-63
2022/08/14 05:34:32;;;;;;;;;;;23.30;77.70;;;;;;5097175;28;19916;-63
2022/08/14 05:36:59;;;;;;;;;;;23.30;77.60;;;;;;5097200;28;19908;-63
2022/08/14 05:39:24;;;;;;;;;;;23.30;77.70;;;;;;5097059;28;19930;-63
2022/08/14 05:41:50;;;;;;;;;;;23.40;77.70;;;;;;5096707;28;19908;-63
2022/08/14 05:44:16;;;;;;;;;;;23.40;77.70;;;;;;5096750;28;20390;-63
2022/08/14 05:46:41;;;;;;;;;;;23.40;77.60;;;;;;5096746;28;19908;-63
2022/08/14 05:49:07;;;;;;;;;;;23.40;77.70;;;;;;5096854;28;20381;-63
2022/08/14 05:51:32;;;;;;;;;;;23.40;77.60;;;;;;5096660;28;19969;-63
2022/08/14 05:53:58;;;;;;;;;;;23.30;77.60;;;;;;5096611;28;20240;-63
2022/08/14 05:56:24;;;;;;;;;;;23.40;77.70;;;;;;5096736;28;19959;-63
2022/08/14 05:58:50;;;;;;;;;;;23.40;77.70;;;;;;5096548;28;19951;-63
2022/08/14 06:01:15;;;;;;;;;;;23.40;77.60;;;;;;5096631;28;19959;-63
2022/08/14 06:03:41;;;;;;;;;;;23.40;77.70;;;;;;5096416;28;20258;-63
2022/08/14 06:06:06;;;;;;;;;;;23.40;77.70;;;;;;5095965;28;19909;-63
2022/08/14 06:08:32;;;;;;;;;;;23.40;77.70;;;;;;5078205;28;19908;-63
2022/08/14 06:11:02;;;;;;;;;;;23.40;77.70;;;;;;5096387;28;20320;-63
2022/08/14 06:13:28;;;;;;;;;;;23.40;77.70;;;;;;5096299;28;19912;-63
2022/08/14 06:15:53;;;;;;;;;;;23.40;77.70;;;;;;5095907;28;19912;-63
2022/08/14 06:18:19;;;;;;;;;;;23.40;77.70;;;;;;5096238;28;20272;-63
2022/08/14 06:20:44;;;;;;;;;;;23.40;77.70;;;;;;5078046;28;19915;-63
2022/08/14 06:23:10;;;;;;;;;;;23.40;77.70;;;;;;5096468;28;20065;-63
2022/08/14 06:25:35;;;;;;;;;;;23.40;77.70;;;;;;5095857;28;19909;-63
2022/08/14 06:28:01;;;;;;;;;;;23.40;77.70;;;;;;5096040;28;19935;-63
2022/08/14 06:30:28;;;;;;;;;;;23.40;77.70;;;;;;5095073;28;19931;-63
2022/08/14 06:32:54;;;;;;;;;;;23.40;77.70;;;;;;5096053;28;19919;-63
2022/08/14 06:35:21;;;;;;;;;;;23.40;78.20;;;;;;5095824;28;20263;-63
2022/08/14 06:37:57;;;;;;;;;;;23.40;77.70;;;;;;5095763;28;19908;-63
2022/08/14 06:40:22;;;;;;;;;;;23.40;77.70;;;;;;5095951;28;19958;-63
2022/08/14 06:42:48;;;;;;;;;;;23.40;77.80;;;;;;5077680;28;19943;-63
2022/08/14 06:45:14;;;;;;;;;;;23.40;77.70;;;;;;5095765;28;19954;-63
2022/08/14 06:47:40;;;;;;;;;;;23.40;77.70;;;;;;5096044;28;19951;-63
2022/08/14 06:50:09;;;;;;;;;;;23.40;77.80;;;;;;5095429;28;19931;-63
2022/08/14 06:52:34;;;;;;;;;;;23.40;77.70;;;;;;5095415;28;19912;-62
2022/08/14 06:55:00;;;;;;;;;;;23.40;77.70;;;;;;5077137;28;19912;-63
2022/08/14 06:57:33;;;;;;;;;;;23.40;77.70;;;;;;5095399;28;19951;-63
2022/08/14 06:59:59;;;;;;;;;;;23.40;77.80;;;;;;5095422;28;19912;-63
2022/08/14 07:07:53;;;;;;;;;;;23.30;77.80;;;;;;5095138;28;19965;-63
2022/08/14 07:10:21;;;;;;;;;;;23.40;77.90;;;;;;5095182;28;19916;-63
2022/08/14 07:12:47;;;;;;;;;;;23.30;77.80;;;;;;5076930;28;19919;-63
2022/08/14 07:15:12;;;;;;;;;;;23.30;77.80;;;;;;5077017;28;19919;-63
2022/08/14 07:17:48;;;;;;;;;;;23.30;77.90;;;;;;5094906;28;19912;-63
2022/08/14 07:20:19;;;;;;;;;;;23.30;77.80;;;;;;5095460;28;19908;-63
2022/08/14 07:22:48;;;;;;;;;;;23.30;77.80;;;;;;5095156;28;19912;-63
2022/08/14 07:25:13;;;;;;;;;;;23.30;77.90;;;;;;5095035;28;19908;-63
2022/08/14 07:27:39;;;;;;;;;;;23.30;77.90;;;;;;5094695;28;19912;-63
2022/08/14 07:30:05;;;;;;;;;;;23.30;77.90;;;;;;5095000;28;20007;-63
2022/08/14 07:32:31;;;;;;;;;;;23.30;77.90;;;;;;5094228;28;19958;-63
2022/08/14 07:34:56;;;;;;;;;;;23.30;77.80;;;;;;5076604;28;19912;-63
2022/08/14 07:37:22;;;;;;;;;;;23.30;77.80;;;;;;5094751;28;19908;-63
2022/08/14 07:39:47;;;;;;;;;;;23.30;77.80;;;;;;5094456;28;19930;-63
2022/08/14 07:42:13;;;;;;;;;;;23.30;77.70;;;;;;5093438;28;20052;-63
2022/08/14 07:44:38;;;;;;;;;;;23.30;77.70;;;;;;5076162;28;20430;-63
2022/08/14 07:47:04;;;;;;;;;;;23.30;77.60;;;;;;5094697;28;19915;-63
2022/08/14 07:49:33;;;;;;;;;;;23.40;77.70;;;;;;5094339;28;19912;-63
2022/08/14 07:52:00;;;;;;;;;;;23.40;77.60;;;;;;5094593;28;19919;-63
2022/08/14 07:54:25;;;;;;;;;;;23.40;77.60;;;;;;5094137;28;20011;-63
2022/08/14 07:56:51;;;;;;;;;;;23.40;77.60;;;;;;5076256;28;19943;-63
2022/08/14 07:59:17;;;;;;;;;;;23.40;77.50;;;;;;5076376;28;19915;-63
2022/08/14 08:01:42;;;;;;;;;;;23.40;77.60;;;;;;5094300;28;20388;-63
2022/08/14 08:04:09;;;;;;;;;;;23.40;77.50;;;;;;5072252;28;19920;-63
2022/08/14 08:06:35;;;;;;;;;;;23.40;77.60;;;;;;5073861;28;19908;-63
2022/08/14 08:09:01;;;;;;;;;;;23.50;77.60;;;;;;5072731;28;19958;-63
2022/08/14 08:11:28;;;;;;;;;;;23.40;77.50;;;;;;5073872;28;19913;-63
2022/08/14 08:13:56;;;;;;;;;;;23.40;77.50;;;;;;5074074;28;19923;-63
2022/08/14 08:16:22;;;;;;;;;;;23.50;77.60;;;;;;5073888;28;19915;-63
2022/08/14 08:18:48;;;;;;;;;;;23.40;77.50;;;;;;5073885;28;19962;-63
2022/08/14 08:21:14;;;;;;;;;;;23.40;77.50;;;;;;5072603;28;20267;-63
2022/08/14 08:23:39;;;;;;;;;;;23.40;77.50;;;;;;5072618;28;19913;-63
2022/08/14 08:26:05;;;;;;;;;;;23.40;77.50;;;;;;5073559;28;20279;-63
2022/08/14 08:28:30;;;;;;;;;;;23.40;77.50;;;;;;5072436;28;20275;-63
2022/08/14 08:30:57;;;;;;;;;;;23.40;77.40;;;;;;5073820;28;20359;-63
2022/08/14 08:33:26;;;;;;;;;;;23.40;77.50;;;;;;5073427;28;19913;-63
2022/08/14 08:35:52;;;;;;;;;;;23.40;77.50;;;;;;5074094;28;19912;-63
2022/08/14 08:38:19;;;;;;;;;;;23.40;77.50;;;;;;5072479;28;19909;-63
2022/08/14 08:40:47;;;;;;;;;;;23.40;77.60;;;;;;5073401;28;19915;-63
2022/08/14 08:43:23;;;;;;;;;;;23.40;78.10;;;;;;5073595;28;19915;-63
2022/08/14 08:45:56;;;;;;;;;;;23.40;77.50;;;;;;5073699;28;19967;-63
2022/08/14 08:48:22;;;;;;;;;;;23.40;77.50;;;;;;5073170;28;19908;-63
2022/08/14 08:50:47;;;;;;;;;;;23.40;77.60;;;;;;5073312;28;19909;-63
2022/08/14 08:53:13;;;;;;;;;;;23.40;77.60;;;;;;5072958;28;20011;-63
2022/08/14 08:55:40;;;;;;;;;;;23.40;77.50;;;;;;5076266;28;19921;-63
2022/08/14 08:58:13;;;;;;;;;;;23.40;77.90;;;;;;5076347;28;19981;-63
2022/08/14 09:00:39;;;;;;;;;;;23.40;77.60;;;;;;5077521;28;19995;-63
2022/08/14 09:03:06;;;;;;;;;;;23.40;77.60;;;;;;5088054;28;19920;-63
2022/08/14 09:05:33;;;;;;;;;;;23.40;77.70;;;;;;5079461;28;20370;-63
2022/08/14 09:08:28;;;;;;;;;;;23.40;77.60;;;;;;5098002;28;19912;-63
2022/08/14 09:10:54;;;;;;;;;;;23.40;77.60;;;;;;5073490;28;19919;-63
2022/08/14 09:13:24;;;;;;;;;;;23.40;77.70;;;;;;5079044;28;19913;-63
2022/08/14 09:15:50;;;;;;;;;;;23.40;77.60;;;;;;5096994;28;19916;-63
2022/08/14 09:18:16;;;;;;;;;;;23.40;77.70;;;;;;5097359;28;19916;-63
2022/08/14 09:20:44;;;;;;;;;;;23.40;77.70;;;;;;5096878;28;19912;-63
2022/08/14 09:23:10;;;;;;;;;;;23.40;77.70;;;;;;5096917;28;20445;-63
2022/08/14 09:25:36;;;;;;;;;;;23.40;77.70;;;;;;5097082;28;19908;-63
2022/08/14 09:28:03;;;;;;;;;;;23.40;77.70;;;;;;5096813;28;20428;-63
2022/08/14 09:30:29;;;;;;;;;;;23.40;77.70;;;;;;5096530;28;20362;-63
2022/08/14 09:33:02;;;;;;;;;;;23.40;77.70;;;;;;5096967;28;20002;-63
2022/08/14 09:35:37;;;;;;;;;;;23.40;77.80;;;;;;5079132;28;19912;-63
2022/08/14 09:38:09;;;;;;;;;;;23.40;77.70;;;;;;5096985;28;20003;-63
2022/08/14 09:40:41;;;;;;;;;;;23.40;77.70;;;;;;5096620;28;20398;-63
2022/08/14 09:43:26;;;;;;;;;;;23.40;77.70;;;;;;5078464;28;20432;-62
2022/08/14 09:45:56;;;;;;;;;;;23.40;77.70;;;;;;5078657;28;19908;-63
2022/08/14 09:48:22;;;;;;;;;;;23.40;77.70;;;;;;5078668;28;19908;-63
2022/08/14 09:50:49;;;;;;;;;;;23.40;77.70;;;;;;5096391;28;19915;-63
2022/08/14 09:53:32;;;;;;;;;;;23.40;77.70;;;;;;5096722;28;19912;-63
2022/08/14 09:55:58;;;;;;;;;;;23.40;77.70;;;;;;5096636;28;19948;-63
2022/08/14 09:58:33;;;;;;;;;;;23.40;77.70;;;;;;5096700;28;19962;-63
2022/08/14 10:01:06;;;;;;;;;;;23.40;77.80;;;;;;5096735;28;19912;-63
2022/08/14 10:03:33;;;;;;;;;;;23.40;77.70;;;;;;5078004;28;19920;-63
2022/08/14 10:06:04;;;;;;;;;;;23.40;77.70;;;;;;5095143;28;20011;-63
2022/08/14 10:08:40;;;;;;;;;;;23.40;77.70;;;;;;5078292;28;19908;-63
2022/08/14 10:11:18;;;;;;;;;;;23.40;77.70;;;;;;5096821;28;19998;-63
2022/08/14 10:13:51;;;;;;;;;;;23.40;77.80;;;;;;5095919;28;20347;-63
2022/08/14 10:16:17;;;;;;;;;;;23.40;77.80;;;;;;5095977;28;20021;-63
2022/08/14 10:18:43;;;;;;;;;;;23.40;77.80;;;;;;5078020;28;19912;-63
2022/08/14 10:21:09;;;;;;;;;;;23.40;77.80;;;;;;5078273;28;19908;-63
2022/08/14 10:23:39;;;;;;;;;;;23.40;77.80;;;;;;5095696;28;19908;-63
2022/08/14 10:26:05;;;;;;;;;;;23.40;77.70;;;;;;5095629;28;19908;-63
2022/08/14 10:28:41;;;;;;;;;;;23.40;77.70;;;;;;5095918;28;20297;-63
2022/08/14 10:31:15;;;;;;;;;;;23.40;77.80;;;;;;5095904;28;20266;-63
2022/08/14 10:33:41;;;;;;;;;;;23.40;77.80;;;;;;5096085;28;19912;-63
2022/08/14 10:36:06;;;;;;;;;;;23.40;77.70;;;;;;5077909;28;19912;-63
2022/08/14 10:38:35;;;;;;;;;;;23.50;77.80;;;;;;5095493;28;19909;-63
2022/08/14 10:41:11;;;;;;;;;;;23.50;77.70;;;;;;5077750;28;19908;-63
2022/08/14 10:43:38;;;;;;;;;;;23.50;77.80;;;;;;5077826;28;19908;-63
2022/08/14 10:46:10;;;;;;;;;;;23.40;77.70;;;;;;5095880;28;19916;-63
2022/08/14 10:48:35;;;;;;;;;;;23.50;77.70;;;;;;5095473;28;19962;-63
2022/08/14 10:51:01;;;;;;;;;;;23.40;77.70;;;;;;5095388;28;19916;-63
2022/08/14 10:53:31;;;;;;;;;;;23.40;77.80;;;;;;5095425;28;19916;-63
2022/08/14 10:56:02;;;;;;;;;;;23.50;77.80;;;;;;5095153;28;19944;-63
2022/08/14 10:58:29;;;;;;;;;;;23.50;77.70;;;;;;5095371;28;19977;-63
2022/08/14 11:00:56;;;;;;;;;;;23.50;77.80;;;;;;5095418;28;19908;-63
2022/08/14 11:03:24;;;;;;;;;;;23.50;77.80;;;;;;5095407;28;19920;-63
2022/08/14 11:05:50;;;;;;;;;;;23.50;77.80;;;;;;5095159;28;19912;-63
2022/08/14 11:08:18;;;;;;;;;;;23.50;77.80;;;;;;5094990;28;20369;-63
2022/08/14 11:10:55;;;;;;;;;;;23.50;77.70;;;;;;5077132;28;19908;-63
2022/08/14 11:13:23;;;;;;;;;;;23.50;77.80;;;;;;5094875;28;19912;-63
2022/08/14 11:15:48;;;;;;;;;;;23.50;77.80;;;;;;5095017;28;19912;-63
2022/08/14 11:18:15;;;;;;;;;;;23.50;77.70;;;;;;5094794;28;19908;-63
2022/08/14 11:20:47;;;;;;;;;;;23.50;77.80;;;;;;5094954;28;19915;-63
2022/08/14 11:23:13;;;;;;;;;;;23.50;77.70;;;;;;5095136;28;19908;-63
2022/08/14 11:25:43;;;;;;;;;;;23.50;77.80;;;;;;5095124;28;19909;-63
2022/08/14 11:28:08;;;;;;;;;;;23.50;77.70;;;;;;5094780;28;19908;-63
2022/08/14 11:30:39;;;;;;;;;;;23.50;77.70;;;;;;5094741;28;19914;-63
2022/08/14 11:33:05;;;;;;;;;;;23.50;77.70;;;;;;5094408;28;19918;-62
2022/08/14 11:35:30;;;;;;;;;;;23.50;77.70;;;;;;5094467;28;19911;-63
2022/08/14 11:37:58;;;;;;;;;;;23.50;77.60;;;;;;5094653;28;19908;-63
2022/08/14 11:40:25;;;;;;;;;;;23.50;77.70;;;;;;5094471;28;19908;-63
2022/08/14 11:42:54;;;;;;;;;;;23.50;77.80;;;;;;5094839;28;19908;-63
2022/08/14 11:45:31;;;;;;;;;;;23.50;77.70;;;;;;5094550;28;19931;-63
2022/08/14 11:47:57;;;;;;;;;;;23.50;77.70;;;;;;5094629;28;19908;-63
2022/08/14 11:50:32;;;;;;;;;;;23.50;77.70;;;;;;5094070;28;19914;-63
2022/08/14 11:52:59;;;;;;;;;;;23.50;77.70;;;;;;5094384;28;20014;-63
2022/08/14 11:55:25;;;;;;;;;;;23.50;77.70;;;;;;5075999;28;20278;-63
2022/08/14 11:58:02;;;;;;;;;;;23.50;77.60;;;;;;5094095;28;19908;-64
2022/08/14 12:00:27;;;;;;;;;;;23.50;77.70;;;;;;5094290;28;19999;-63
2022/08/14 12:02:54;;;;;;;;;;;23.50;77.70;;;;;;5075906;28;19975;-63
2022/08/14 12:05:29;;;;;;;;;;;23.50;77.70;;;;;;5093987;28;19943;-61
2022/08/14 12:07:57;;;;;;;;;;;23.50;77.60;;;;;;5094473;28;20264;-63
2022/08/14 12:10:22;;;;;;;;;;;23.50;77.50;;;;;;5094205;28;20002;-62
2022/08/14 12:12:48;;;;;;;;;;;23.50;77.70;;;;;;5094344;28;20381;-62
2022/08/14 12:15:15;;;;;;;;;;;23.50;77.60;;;;;;5094322;28;19918;-62
2022/08/14 12:17:47;;;;;;;;;;;23.50;77.70;;;;;;5094162;28;19962;-62
2022/08/14 12:20:13;;;;;;;;;;;23.50;77.70;;;;;;5076112;28;19923;-62
2022/08/14 12:22:38;;;;;;;;;;;23.50;77.70;;;;;;5076003;28;19908;-62
2022/08/14 12:25:05;;;;;;;;;;;23.50;77.60;;;;;;5093815;28;19953;-62
2022/08/14 12:27:36;;;;;;;;;;;23.50;77.50;;;;;;5075454;28;19909;-62
2022/08/14 12:30:02;;;;;;;;;;;23.50;77.60;;;;;;5094201;28;19920;-61
2022/08/14 12:32:37;;;;;;;;;;;23.50;77.70;;;;;;5093527;28;19912;-62
2022/08/14 12:35:03;;;;;;;;;;;23.50;77.70;;;;;;5094048;28;19916;-62
2022/08/14 12:37:30;;;;;;;;;;;23.50;77.60;;;;;;5075766;28;19980;-61
2022/08/14 12:40:07;;;;;;;;;;;23.50;78.20;;;;;;5093877;28;20276;-61
2022/08/14 12:42:33;;;;;;;;;;;23.50;77.70;;;;;;5094155;28;19909;-62
2022/08/14 12:44:59;;;;;;;;;;;23.50;77.60;;;;;;5093767;28;19935;-62
2022/08/14 12:47:29;;;;;;;;;;;23.50;77.70;;;;;;5093670;28;19912;-62
2022/08/14 12:49:56;;;;;;;;;;;23.50;77.70;;;;;;5094223;28;19908;-62
2022/08/14 12:52:39;;;;;;;;;;;23.50;77.70;;;;;;5094010;28;19993;-62
2022/08/14 12:55:09;;;;;;;;;;;23.50;77.70;;;;;;5094256;28;19995;-62
2022/08/14 12:57:38;;;;;;;;;;;23.50;77.60;;;;;;5093477;28;19908;-62
2022/08/14 13:00:13;;;;;;;;;;;23.50;77.70;;;;;;5093775;28;20303;-62
2022/08/14 13:02:40;;;;;;;;;;;23.50;77.60;;;;;;5093539;28;20322;-62
2022/08/14 13:05:08;;;;;;;;;;;23.50;77.60;;;;;;5093641;28;19908;-62
2022/08/14 13:07:34;;;;;;;;;;;23.50;77.60;;;;;;5075648;28;19959;-62
2022/08/14 13:10:00;;;;;;;;;;;23.50;77.60;;;;;;5093339;28;19912;-62
2022/08/14 13:12:27;;;;;;;;;;;23.50;77.60;;;;;;5093495;28;19912;-62
2022/08/14 13:14:55;;;;;;;;;;;23.50;77.60;;;;;;5093645;28;19916;-62
2022/08/14 13:17:21;;;;;;;;;;;23.50;77.70;;;;;;5093155;28;20260;-62
2022/08/14 13:19:47;;;;;;;;;;;23.50;77.70;;;;;;5093367;28;19908;-62
2022/08/14 13:22:13;;;;;;;;;;;23.50;77.70;;;;;;5093496;28;20422;-62
2022/08/14 13:24:39;;;;;;;;;;;23.50;77.70;;;;;;5093870;28;19993;-62
2022/08/14 13:27:04;;;;;;;;;;;23.50;77.60;;;;;;5093223;28;19909;-62
2022/08/14 13:29:36;;;;;;;;;;;23.50;77.60;;;;;;5093483;28;19909;-62
2022/08/14 13:32:04;;;;;;;;;;;23.50;77.70;;;;;;5075242;28;20385;-62
2022/08/14 13:34:29;;;;;;;;;;;23.50;77.70;;;;;;5093663;28;20013;-63
2022/08/14 13:36:58;;;;;;;;;;;23.50;77.70;;;;;;5093228;28;20379;-62
2022/08/14 13:39:24;;;;;;;;;;;23.50;77.70;;;;;;5075266;28;19909;-62
2022/08/14 13:41:50;;;;;;;;;;;23.50;77.60;;;;;;5078405;28;19912;-62
2022/08/14 13:44:16;;;;;;;;;;;23.50;77.60;;;;;;5078610;28;19914;-62
2022/08/14 13:46:45;;;;;;;;;;;23.50;77.60;;;;;;5096603;28;19912;-62
2022/08/14 13:49:12;;;;;;;;;;;23.50;77.60;;;;;;5078676;28;20274;-62
2022/08/14 13:51:38;;;;;;;;;;;23.50;77.60;;;;;;5096827;28;20258;-62
2022/08/14 13:54:04;;;;;;;;;;;23.50;77.60;;;;;;5096387;28;19942;-62
2022/08/14 13:56:32;;;;;;;;;;;23.50;77.60;;;;;;5078533;28;19908;-62
2022/08/14 13:58:58;;;;;;;;;;;23.50;77.60;;;;;;5096886;28;19908;-63
2022/08/14 14:01:25;;;;;;;;;;;23.50;77.60;;;;;;5078557;28;20322;-62
2022/08/14 14:03:53;;;;;;;;;;;23.50;77.60;;;;;;5096569;28;19924;-62
2022/08/14 14:06:19;;;;;;;;;;;23.50;77.60;;;;;;5096228;28;19908;-62
2022/08/14 14:08:46;;;;;;;;;;;23.50;77.60;;;;;;5078230;28;20251;-62
2022/08/14 14:11:13;;;;;;;;;;;23.50;77.60;;;;;;5078077;28;19908;-62
2022/08/14 14:13:38;;;;;;;;;;;23.50;77.70;;;;;;5096153;28;20343;-61
2022/08/14 14:16:05;;;;;;;;;;;23.50;77.70;;;;;;5096273;28;19920;-62
2022/08/14 14:18:31;;;;;;;;;;;23.50;77.70;;;;;;5096064;28;20396;-62
2022/08/14 14:20:57;;;;;;;;;;;23.50;77.70;;;;;;5095960;28;19965;-62
2022/08/14 14:23:24;;;;;;;;;;;23.50;77.70;;;;;;5096203;28;19915;-62
2022/08/14 14:25:50;;;;;;;;;;;23.50;77.70;;;;;;5095806;28;19912;-62
2022/08/14 14:28:16;;;;;;;;;;;23.50;77.70;;;;;;5095877;28;19909;-62
2022/08/14 14:30:45;;;;;;;;;;;23.50;77.80;;;;;;5095703;28;20311;-62
2022/08/14 14:33:12;;;;;;;;;;;23.50;77.70;;;;;;5095987;28;19947;-62